Time;durP1;ratioP1;P1;durP2;ratioP2;P2;SDS_P1;SDS_P2;PMS_P1;PMS_P2;Temp;Humidity;BMP_temperature;BMP_pressure;BME280_temperature;BME280_humidity;BME280_pressure;Samples;Min_cycle;Max_cycle;Signal;HPM_P1;HPM_P2
2022/05/23 00:00:22;;;;;;;4.45;3.17;;;;;;;6.95;100.00;99533.47;5120170;27;20038;-89
2022/05/23 00:03:06;;;;;;;6.28;3.80;;;;;;;6.86;100.00;99523.22;5095956;27;20047;-89
2022/05/23 00:05:51;;;;;;;3.97;2.88;;;;;;;6.83;100.00;99512.00;5113042;27;20500;-89
2022/05/23 00:08:35;;;;;;;5.35;3.38;;;;;;;6.83;100.00;99538.03;5095512;27;20088;-89
2022/05/23 00:11:20;;;;;;;5.72;3.35;;;;;;;6.69;100.00;99517.38;5087788;28;20088;-89
2022/05/23 00:14:05;;;;;;;7.47;3.80;;;;;;;6.69;100.00;99517.38;5106381;27;20035;-89
2022/05/23 00:16:50;;;;;;;5.10;3.40;;;;;;;6.70;100.00;99513.91;5097794;27;20043;-89
2022/05/23 00:19:35;;;;;;;8.10;4.85;;;;;;;6.71;100.00;99516.50;5104439;27;20039;-89
2022/05/23 00:22:21;;;;;;;7.80;4.30;;;;;;;6.78;100.00;99528.53;5126290;27;20039;-89
2022/05/23 00:25:07;;;;;;;5.32;3.55;;;;;;;6.78;100.00;99540.69;5091696;28;20104;-89
2022/05/23 00:27:51;;;;;;;5.78;3.40;;;;;;;6.74;100.00;99536.41;5093845;27;20035;-88
2022/05/23 00:30:35;;;;;;;4.63;3.40;;;;;;;6.76;100.00;99526.84;5092347;27;20201;-89
2022/05/23 00:36:28;;;;;;;6.32;3.92;;;;;;;7.19;100.00;99534.88;5110046;27;20039;-89
2022/05/23 00:39:13;;;;;;;3.55;2.47;;;;;;;7.17;100.00;99525.34;5094529;27;20478;-89
2022/05/23 00:45:02;;;;;;;6.15;4.15;;;;;;;7.16;100.00;99529.72;5123947;27;20065;-89
2022/05/23 00:47:48;;;;;;;5.85;4.15;;;;;;;7.13;100.00;99521.94;5091268;27;20115;-89
2022/05/23 00:50:39;;;;;;;5.88;3.80;;;;;;;7.19;100.00;99521.84;5106710;27;20375;-89
2022/05/23 00:53:31;;;;;;;4.82;3.72;;;;;;;7.19;100.00;99536.63;5108516;27;20065;-89
2022/05/23 00:56:19;;;;;;;7.03;3.77;;;;;;;7.15;100.00;99527.13;5093705;27;20036;-89
2022/05/23 00:59:04;;;;;;;4.30;3.33;;;;;;;7.07;100.00;99523.78;5092371;27;20398;-89
2022/05/23 01:01:49;;;;;;;5.65;3.92;;;;;;;7.09;100.00;99524.63;5098332;27;20031;-89
2022/05/23 01:04:33;;;;;;;5.65;3.65;;;;;;;7.11;100.00;99534.13;5093560;27;20047;-89
2022/05/23 01:07:17;;;;;;;4.68;3.38;;;;;;;6.94;100.00;99528.31;5099683;27;20039;-89
2022/05/23 01:10:03;;;;;;;6.43;3.75;;;;;;;6.80;100.00;99525.91;5107103;28;20042;-89
2022/05/23 01:12:49;;;;;;;4.05;3.63;;;;;;;6.79;100.00;99532.88;5099210;27;20043;-89
2022/05/23 01:15:36;;;;;;;5.55;3.15;;;;;;;6.85;100.00;99544.91;5108713;27;20119;-89
2022/05/23 01:18:21;;;;;;;5.55;3.83;;;;;;;6.76;100.00;99524.25;5097620;27;20060;-89
2022/05/23 01:21:13;;;;;;;4.25;3.30;;;;;;;6.71;100.00;99521.69;5094083;27;20028;-90
2022/05/23 01:24:11;;;;;;;6.33;3.97;;;;;;;6.68;100.00;99526.94;5090763;27;20035;-89
2022/05/23 01:27:05;;;;;;;6.18;3.92;;;;;;;6.60;100.00;99535.72;5096054;27;20358;-89
2022/05/23 01:29:55;;;;;;;4.13;3.58;;;;;;;6.63;100.00;99533.06;5104334;27;20043;-89
2022/05/23 01:32:40;;;;;;;5.85;4.32;;;;;;;6.57;100.00;99528.84;5089076;27;20438;-89
2022/05/23 01:35:25;;;;;;;4.95;3.78;;;;;;;6.55;100.00;99521.03;5094528;27;20031;-89
2022/05/23 01:38:10;;;;;;;7.00;4.40;;;;;;;6.57;100.00;99527.97;5102730;28;20032;-89
2022/05/23 01:41:04;;;;;;;4.75;3.67;;;;;;;6.45;100.00;99518.59;5093463;28;20046;-89
2022/05/23 01:43:49;;;;;;;6.18;3.67;;;;;;;6.32;100.00;99521.34;5097815;27;20092;-88
2022/05/23 01:46:46;;;;;;;6.38;3.38;;;;;;;6.25;100.00;99524.03;5104602;27;20046;-90
2022/05/23 01:49:42;;;;;;;4.47;3.55;;;;;;;6.23;100.00;99511.03;5091836;28;20028;-89
2022/05/23 01:52:43;;;;;;;5.05;3.50;;;;;;;6.28;100.00;99531.81;5090877;28;20042;-89
2022/05/23 01:55:31;;;;;;;4.28;3.55;;;;;;;6.20;100.00;99510.22;5093188;27;20696;-90
2022/05/23 02:01:38;;;;;;;6.35;4.55;;;;;;;6.18;100.00;99510.25;5108249;28;20032;-90
2022/05/23 02:04:23;;;;;;;7.45;4.88;;;;;;;6.11;100.00;99503.41;5087234;28;20036;-90
2022/05/23 02:07:08;;;;;;;8.10;5.20;;;;;;;6.47;100.00;99522.88;5106703;28;20036;-90
2022/05/23 02:09:54;;;;;;;14.48;7.13;;;;;;;6.28;100.00;99496.25;5093346;28;20043;-89
2022/05/23 02:12:41;;;;;;;12.10;8.63;;;;;;;6.24;100.00;99510.19;5088768;28;20063;-90
2022/05/23 02:15:32;;;;;;;8.18;6.13;;;;;;;6.24;100.00;99504.09;5092826;28;20393;-89
2022/05/23 02:18:16;;;;;;;9.13;6.18;;;;;;;6.25;100.00;99501.47;5104765;28;20039;-89
2022/05/23 02:21:02;;;;;;;7.05;5.05;;;;;;;6.25;100.00;99495.44;5105015;28;20036;-89
2022/05/23 02:23:47;;;;;;;11.38;6.03;;;;;;;6.21;100.00;99497.22;5090449;28;20420;-89
2022/05/23 02:26:32;;;;;;;7.80;5.53;;;;;;;6.15;100.00;99499.88;5089278;28;20035;-89
2022/05/23 02:29:33;;;;;;;9.60;6.00;;;;;;;6.24;100.00;99493.69;5108402;28;20469;-89
2022/05/23 02:32:18;;;;;;;7.75;5.78;;;;;;;6.27;100.00;99501.44;5086955;28;20035;-89
2022/05/23 02:35:02;;;;;;;8.43;5.50;;;;;;;6.17;100.00;99486.84;5095710;28;20044;-89
2022/05/23 02:37:47;;;;;;;9.00;5.78;;;;;;;6.14;100.00;99484.28;5094140;28;20032;-90
2022/05/23 02:40:33;;;;;;;5.85;4.95;;;;;;;5.96;100.00;99483.63;5087018;28;20042;-89
2022/05/23 02:43:18;;;;;;;6.45;5.00;;;;;;;6.27;100.00;99501.44;5089293;27;20031;-90
2022/05/23 02:46:07;;;;;;;6.97;5.45;;;;;;;6.15;100.00;99489.47;5108103;27;20075;-90
2022/05/23 02:48:52;;;;;;;9.00;5.80;;;;;;;6.03;100.00;99494.81;5107999;27;20031;-90
2022/05/23 02:51:38;;;;;;;7.20;5.93;;;;;;;5.90;100.00;99493.19;5100338;27;20039;-90
2022/05/23 02:54:28;;;;;;;6.22;4.95;;;;;;;6.08;100.00;99504.28;5096749;27;20081;-90
2022/05/23 02:57:17;;;;;;;10.98;5.90;;;;;;;5.97;100.00;99485.34;5098187;27;20038;-89
2022/05/23 03:00:05;;;;;;;7.60;5.50;;;;;;;6.13;100.00;99490.38;5096206;28;20066;-90
2022/05/23 03:03:01;;;;;;;11.25;5.90;;;;;;;6.03;100.00;99490.47;5110395;27;20484;-90
2022/05/23 03:05:51;;;;;;;8.02;5.95;;;;;;;6.12;100.00;99493.84;5102333;27;20443;-90
2022/05/23 03:08:36;;;;;;;9.65;5.78;;;;;;;6.08;100.00;99482.63;5100055;27;20393;-89
2022/05/23 03:11:21;;;;;;;6.18;5.20;;;;;;;6.06;100.00;99490.44;5092814;27;20043;-89
2022/05/23 03:14:06;;;;;;;9.77;5.20;;;;;;;6.17;100.00;99487.69;5099603;27;20035;-90
2022/05/23 03:16:50;;;;;;;9.35;5.78;;;;;;;5.95;100.00;99486.25;5086233;27;20047;-89
2022/05/23 03:19:39;;;;;;;8.00;5.88;;;;;;;6.01;100.00;99475.75;5109883;27;20036;-88
2022/05/23 03:28:53;;;;;;;;;;;;;;;6.24;100.00;99494.56;5026288;28;20060;-89
2022/05/23 03:31:38;;;;;;;8.55;5.72;;;;;;;6.16;100.00;99483.38;5024542;28;20390;-90
2022/05/23 03:34:25;;;;;;;8.15;5.70;;;;;;;6.19;100.00;99485.94;5099308;27;20417;-90
2022/05/23 03:37:09;;;;;;;8.45;5.82;;;;;;;6.25;100.00;99511.03;5099927;27;20036;-90
2022/05/23 03:39:54;;;;;;;7.25;5.55;;;;;;;6.31;100.00;99490.16;5103957;27;20035;-90
2022/05/23 03:42:38;;;;;;;8.63;6.13;;;;;;;6.37;100.00;99494.38;5105253;27;20045;-90
2022/05/23 03:45:24;;;;;;;7.03;6.00;;;;;;;6.47;100.00;99496.88;5091721;27;20031;-90
2022/05/23 03:48:09;;;;;;;11.73;8.32;;;;;;;6.70;100.00;99500.91;5090214;27;20040;-90
2022/05/23 03:50:54;;;;;;;10.25;8.10;;;;;;;6.77;100.00;99510.34;5098898;27;20186;-90
2022/05/23 03:53:38;;;;;;;9.82;7.82;;;;;;;6.87;100.00;99517.13;5106719;27;20043;-90
2022/05/23 03:56:25;;;;;;;9.15;6.70;;;;;;;6.79;100.00;99526.78;5098734;27;20031;-90
2022/05/23 03:59:14;;;;;;;8.00;6.13;;;;;;;6.89;100.00;99544.03;5094548;27;20032;-90
2022/05/23 04:02:11;;;;;;;7.00;5.97;;;;;;;7.35;100.00;99542.47;5089818;27;20039;-90
2022/05/23 04:04:56;;;;;;;6.88;6.18;;;;;;;7.79;100.00;99530.41;5088548;27;20436;-91
2022/05/23 04:08:20;;;;;;;8.00;5.97;;;;;;;8.59;100.00;99529.72;5062455;28;20051;-91
2022/05/23 04:11:09;;;;;;;8.10;6.30;;;;;;;8.87;100.00;99524.75;5048817;28;20123;-91
2022/05/23 04:13:54;;;;;;;12.20;7.22;;;;;;;9.52;100.00;99531.91;5087406;27;20052;-91
2022/05/23 04:16:39;;;;;;;9.25;6.35;;;;;;;9.70;100.00;99533.22;5093926;27;20456;-91
2022/05/23 04:19:27;;;;;;;11.48;6.80;;;;;;;10.02;100.00;99537.59;5096721;27;20064;-91
2022/05/23 04:22:41;;;;;;;8.35;6.40;;;;;;;10.56;100.00;99529.09;5107171;27;20056;-91
2022/05/23 04:25:34;;;;;;;11.80;7.88;;;;;;;10.96;100.00;99535.78;5090711;27;20040;-91
2022/05/23 04:28:20;;;;;;;8.57;5.75;;;;;;;10.94;100.00;99545.44;5090214;27;20044;-91
2022/05/23 04:31:04;;;;;;;8.82;5.05;;;;;;;11.30;100.00;99530.31;5087845;27;20043;-91
2022/05/23 04:37:16;;;;;;;6.53;5.13;;;;;;;10.45;100.00;99545.13;5111664;27;20035;-91
2022/05/23 04:40:06;;;;;;;6.95;5.22;;;;;;;11.06;100.00;99549.47;5092658;27;20036;-91
2022/05/23 04:42:51;;;;;;;5.97;4.72;;;;;;;10.99;100.00;99559.28;5089420;27;20063;-90
2022/05/23 04:45:36;;;;;;;6.60;4.30;;;;;;;11.04;100.00;99544.25;5090602;27;20394;-93
2022/05/23 04:51:44;;;;;;;6.30;4.63;;;;;;;12.59;100.00;99537.22;5104200;27;20035;-93
2022/05/23 04:54:28;;;;;;;5.75;4.40;;;;;;;12.86;100.00;99534.44;5094179;27;20032;-93
2022/05/23 04:57:17;;;;;;;5.63;4.60;;;;;;;13.00;100.00;99547.94;5092888;27;20077;-93
2022/05/23 05:00:06;;;;;;;9.02;4.85;;;;;;;13.36;100.00;99550.03;5089687;27;20034;-93
2022/05/23 05:02:59;;;;;;;4.60;4.00;;;;;;;12.25;100.00;99553.38;5086432;27;20119;-91
2022/05/23 05:05:53;;;;;;;6.13;4.22;;;;;;;13.50;100.00;99539.78;5090961;27;20032;-91
2022/05/23 05:08:39;;;;;;;7.90;4.60;;;;;;;13.46;100.00;99543.47;5092175;27;20039;-92
2022/05/23 05:11:23;;;;;;;6.57;4.00;;;;;;;13.94;100.00;99542.34;5087851;27;20051;-91
2022/05/23 05:14:28;;;;;;;7.07;3.67;;;;;;;13.87;100.00;99555.81;5121583;27;20064;-91
2022/05/23 05:17:16;;;;;;;7.25;3.00;;;;;;;13.81;100.00;99551.66;5091116;27;20035;-91
2022/05/23 05:20:00;;;;;;;5.20;2.67;;;;;;;14.30;100.00;99568.00;5097453;27;20035;-91
2022/05/23 05:23:13;;;;;;;5.47;2.78;;;;;;;14.77;100.00;99554.47;5107311;27;20524;-91
2022/05/23 05:26:15;;;;;;;7.70;3.08;;;;;;;14.40;100.00;99550.00;5094345;27;20043;-92
2022/05/23 05:29:01;;;;;;;5.95;2.38;;;;;;;14.46;100.00;99555.88;5093004;27;20039;-91
2022/05/23 05:31:59;;;;;;;3.15;2.30;;;;;;;14.31;100.00;99551.25;5090759;28;20114;-91
2022/05/23 05:34:59;;;;;;;3.38;2.35;;;;;;;14.79;100.00;99550.00;5093114;27;20039;-91
2022/05/23 05:38:01;;;;;;;3.22;2.50;;;;;;;15.08;100.00;99559.19;5093765;27;20060;-91
2022/05/23 05:40:50;;;;;;;4.60;2.58;;;;;;;15.11;100.00;99544.97;5104675;27;20050;-91
2022/05/23 05:43:40;;;;;;;4.80;2.60;;;;;;;15.29;100.00;99545.88;5093511;27;20110;-91
2022/05/23 05:46:42;;;;;;;2.78;2.35;;;;;;;15.05;100.00;99569.03;5093178;27;20057;-91
2022/05/23 05:49:34;;;;;;;;;;;;;;;14.57;100.00;99573.00;5091685;27;20133;-91
2022/05/23 05:52:30;;;;;;;2.28;1.67;;;;;;;14.57;100.00;99562.44;5108253;27;19923;-92
2022/05/23 05:55:18;;;;;;;3.38;1.45;;;;;;;14.22;100.00;99556.94;5107573;27;20496;-91
2022/05/23 05:58:09;;;;;;;2.97;1.70;;;;;;;14.99;100.00;99587.78;5095163;27;20389;-91
2022/05/23 06:01:00;;;;;;;4.47;1.63;;;;;;;15.11;100.00;99572.22;5090973;28;20399;-91
2022/05/23 06:03:49;;;;;;;3.88;1.70;;;;;;;14.65;100.00;99578.75;5094822;28;20046;-91
2022/05/23 06:12:56;;;;;;;12.93;6.55;;;;;;;15.18;100.00;99563.09;5103535;28;20039;-91
2022/05/23 06:15:59;;;;;;;15.02;12.98;;;;;;;15.52;100.00;99564.09;5109240;28;20043;-91
2022/05/23 06:18:51;;;;;;;11.23;7.55;;;;;;;15.58;100.00;99569.06;5105679;27;20073;-91
2022/05/23 06:21:36;;;;;;;11.07;6.13;;;;;;;15.20;100.00;99560.38;5092508;27;20076;-91
2022/05/23 06:24:20;;;;;;;5.97;3.22;;;;;;;15.98;100.00;99563.59;5096671;27;20035;-91
2022/05/23 06:27:08;;;;;;;5.20;1.80;;;;;;;15.96;100.00;99558.41;5097409;27;20051;-91
2022/05/23 06:30:17;;;;;;;2.33;1.38;;;;;;;16.48;100.00;99557.47;5107418;27;20474;-91
2022/05/23 06:33:14;;;;;;;4.97;3.03;;;;;;;16.25;100.00;99559.53;5097625;27;20473;-91
2022/05/23 06:36:20;;;;;;;4.78;2.47;;;;;;;16.58;100.00;99559.53;5094386;27;20094;-91
2022/05/23 06:39:06;;;;;;;2.35;1.30;;;;;;;17.01;98.97;99537.88;5092573;27;20040;-91
2022/05/23 06:42:22;;;;;;;1.63;1.10;;;;;;;16.78;93.19;99541.78;5038916;27;20504;-92
2022/05/23 06:45:25;;;;;;;3.20;1.08;;;;;;;16.47;93.41;99550.47;5113916;27;20095;-92
2022/05/23 06:48:29;;;;;;;0.90;0.85;;;;;;;16.85;88.17;99551.06;5109626;27;20366;-91
2022/05/23 06:51:20;;;;;;;3.67;1.48;;;;;;;17.17;82.75;99559.88;5088567;27;20880;-91
2022/05/23 06:54:07;;;;;;;2.35;1.50;;;;;;;17.11;82.68;99540.84;5101770;27;20039;-92
2022/05/23 06:57:04;;;;;;;5.32;1.30;;;;;;;17.52;80.94;99541.16;5096644;27;20035;-92
2022/05/23 06:59:50;;;;;;;1.95;1.02;;;;;;;18.15;80.00;99548.06;5091359;27;20039;-92
2022/05/23 07:02:38;;;;;;;1.90;1.17;;;;;;;17.47;78.41;99532.59;5093366;27;20031;-92
2022/05/23 07:14:44;;;;;;;2.45;2.05;;;;;;;18.03;74.67;99516.97;5109686;27;20697;-91
2022/05/23 07:17:29;;;;;;;2.65;1.58;;;;;;;17.95;74.85;99528.06;5092310;27;20160;-92
2022/05/23 07:20:33;;;;;;;2.47;1.40;;;;;;;19.13;73.88;99512.75;5111460;27;20036;-92
2022/05/23 07:23:27;;;;;;;5.53;1.90;;;;;;;17.59;76.23;99509.88;5092967;27;20039;-93
2022/05/23 07:26:20;;;;;;;3.03;1.77;;;;;;;19.21;71.09;99514.94;5095787;27;20040;-92
2022/05/23 07:29:13;;;;;;;2.65;1.30;;;;;;;19.59;70.61;99518.53;5095014;27;20114;-92
2022/05/23 07:31:59;;;;;;;2.25;1.40;;;;;;;19.54;73.03;99504.72;5095627;27;20046;-92
2022/05/23 07:34:46;;;;;;;3.72;1.50;;;;;;;19.35;70.19;99498.94;5105183;27;20035;-92
2022/05/23 07:37:31;;;;;;;3.95;1.77;;;;;;;18.88;74.51;99495.78;5095509;27;20039;-93
2022/05/23 07:40:20;;;;;;;1.90;1.20;;;;;;;18.55;74.98;99493.41;5096079;27;20592;-92
2022/05/23 07:43:17;;;;;;;2.17;1.60;;;;;;;19.71;74.86;99489.50;5093985;27;20043;-92
2022/05/23 07:46:10;;;;;;;1.80;1.27;;;;;;;20.07;71.78;99508.22;5094130;27;20039;-93
2022/05/23 07:48:56;;;;;;;3.60;1.77;;;;;;;19.83;67.46;99507.25;5091743;27;20043;-92
2022/05/23 07:51:41;;;;;;;3.40;1.38;;;;;;;20.40;67.23;99493.53;5091912;27;20048;-92
2022/05/23 08:00:58;;;;;;;5.00;1.50;;;;;;;20.45;64.24;99483.44;5106238;27;20093;-91
2022/05/23 08:03:46;;;;;;;5.63;1.42;;;;;;;20.54;62.62;99481.97;5095412;27;20036;-92
2022/05/23 08:06:44;;;;;;;1.52;1.05;;;;;;;20.74;53.64;99480.53;5096172;27;20035;-92
2022/05/23 08:09:29;;;;;;;2.45;1.10;;;;;;;21.11;57.21;99477.84;5093286;27;20391;-92
2022/05/23 08:12:24;;;;;;;1.38;1.23;;;;;;;20.74;56.51;99465.41;5094404;27;20047;-93
2022/05/23 08:15:09;;;;;;;1.27;0.93;;;;;;;21.21;52.92;99452.22;5092082;27;20038;-92
2022/05/23 08:17:55;;;;;;;4.38;1.27;;;;;;;21.34;54.12;99460.13;5089198;27;20081;-92
2022/05/23 08:20:49;;;;;;;1.30;1.20;;;;;;;20.91;55.72;99466.00;5097314;27;20035;-92
2022/05/23 08:23:36;;;;;;;1.50;1.10;;;;;;;20.81;54.87;99449.00;5094706;27;20393;-92
2022/05/23 08:26:35;;;;;;;0.90;0.82;;;;;;;21.61;55.15;99460.75;5096540;27;20039;-92
2022/05/23 08:29:20;;;;;;;1.73;0.63;;;;;;;21.97;52.04;99452.69;5093291;27;20036;-92
2022/05/23 08:32:18;;;;;;;1.95;0.85;;;;;;;20.89;53.88;99462.59;5098362;27;20508;-92
2022/05/23 08:35:17;;;;;;;1.45;0.70;;;;;;;21.28;52.44;99452.59;5093529;27;20027;-91
2022/05/23 08:38:08;;;;;;;1.30;0.85;;;;;;;20.33;54.59;99449.72;5095279;27;20035;-92
2022/05/23 08:41:26;;;;;;;1.35;0.80;;;;;;;21.79;53.53;99466.50;5106926;27;20585;-92
2022/05/23 08:44:36;;;;;;;1.13;0.80;;;;;;;20.90;53.20;99461.63;5093687;27;20051;-92
2022/05/23 08:47:24;;;;;;;2.53;1.08;;;;;;;21.34;52.73;99466.31;5096500;27;20044;-92
2022/05/23 08:50:12;;;;;;;1.65;0.90;;;;;;;21.82;52.98;99460.91;5091717;27;20047;-91
2022/05/23 08:53:10;;;;;;;1.85;1.05;;;;;;;21.39;53.30;99450.03;5091986;27;20031;-92
2022/05/23 08:56:18;;;;;;;3.42;1.08;;;;;;;21.19;51.20;99454.16;5095016;27;20058;-92
2022/05/23 08:59:25;;;;;;;3.50;0.88;;;;;;;21.72;49.02;99456.44;5094778;27;20072;-92
2022/05/23 09:02:31;;;;;;;2.70;1.20;;;;;;;20.20;52.68;99464.84;5096235;27;20389;-92
2022/05/23 09:05:21;;;;;;;1.83;0.98;;;;;;;22.12;49.20;99457.69;5095272;27;20096;-92
2022/05/23 09:08:10;;;;;;;1.50;1.02;;;;;;;22.03;50.90;99460.22;5106240;27;20059;-92
2022/05/23 09:11:00;;;;;;;2.10;1.08;;;;;;;21.75;48.94;99448.19;5094332;27;20042;-92
2022/05/23 09:13:45;;;;;;;2.85;1.20;;;;;;;22.16;48.88;99424.53;5092488;27;20110;-91
2022/05/23 09:16:52;;;;;;;2.05;1.10;;;;;;;22.54;48.89;99422.41;5090984;27;20100;-92
2022/05/23 09:19:54;;;;;;;2.95;1.38;;;;;;;21.68;48.59;99423.84;5088480;27;20105;-92
2022/05/23 09:22:45;;;;;;;4.38;1.20;;;;;;;21.79;47.80;99428.31;5103651;27;20031;-92
2022/05/23 09:25:30;;;;;;;1.10;0.82;;;;;;;22.28;48.88;99420.00;5091657;27;20039;-92
2022/05/23 09:28:35;;;;;;;2.63;1.10;;;;;;;22.15;46.72;99429.94;5092687;27;20047;-92
2022/05/23 09:31:42;;;;;;;2.20;1.17;;;;;;;21.61;50.29;99438.56;5091356;27;20085;-92
2022/05/23 09:34:43;;;;;;;1.90;1.27;;;;;;;22.45;49.33;99424.00;5100859;28;20032;-92
2022/05/23 09:37:39;;;;;;;1.48;1.30;;;;;;;23.05;45.91;99412.00;5103397;27;20478;-92
2022/05/23 09:40:29;;;;;;;2.72;1.52;;;;;;;22.38;45.08;99409.47;5092964;27;20043;-92
2022/05/23 09:49:44;;;;;;;2.45;1.50;;;;;;;21.78;48.82;99418.66;5120211;27;20106;-92
2022/05/23 09:52:32;;;;;;;4.05;1.75;;;;;;;22.48;50.70;99418.41;5108500;28;20035;-91
2022/05/23 09:55:31;;;;;;;2.67;1.92;;;;;;;22.14;46.57;99415.75;5093270;27;20034;-92
2022/05/23 09:58:34;;;;;;;2.75;1.65;;;;;;;22.48;47.84;99402.41;5088270;28;20031;-92
2022/05/23 10:01:27;;;;;;;1.65;1.35;;;;;;;23.32;46.29;99410.66;5092427;28;20040;-92
2022/05/23 10:04:17;;;;;;;3.17;2.10;;;;;;;23.51;47.24;99409.97;5079482;28;20358;-92
2022/05/23 10:07:01;;;;;;;3.42;1.90;;;;;;;20.49;52.18;99388.31;5072493;28;20032;-91
2022/05/23 10:09:56;;;;;;;3.20;2.13;;;;;;;19.50;55.91;99414.72;5074627;28;20035;-92
2022/05/23 10:13:26;;;;;;;1.67;1.42;;;;;;;19.64;56.79;99401.41;5096339;28;20482;-92
2022/05/23 10:16:12;;;;;;;3.30;2.08;;;;;;;21.55;52.02;99405.28;5085980;28;20054;-92
2022/05/23 10:19:05;;;;;;;3.03;1.98;;;;;;;20.22;51.74;99392.00;5071867;28;20070;-92
2022/05/23 10:22:09;;;;;;;1.70;1.10;;;;;;;20.00;55.56;99394.47;5070421;28;20398;-91
2022/05/23 10:25:06;;;;;;;2.70;1.67;;;;;;;20.86;53.27;99373.16;5068901;28;20040;-91
2022/05/23 10:27:56;;;;;;;2.15;1.73;;;;;;;21.44;49.87;99375.94;5070430;28;20032;-93
2022/05/23 10:30:55;;;;;;;2.17;1.65;;;;;;;20.83;51.92;99370.75;5076258;28;20394;-92
2022/05/23 10:33:45;;;;;;;2.40;1.70;;;;;;;21.00;53.09;99361.50;5068925;28;20040;-92
2022/05/23 10:36:31;;;;;;;2.50;2.30;;;;;;;22.09;48.35;99371.75;5085775;28;20040;-92
2022/05/23 10:42:31;;;;;;;3.67;2.70;;;;;;;22.07;48.83;99363.88;5096200;28;20108;-92
2022/05/23 10:45:24;;;;;;;3.03;2.45;;;;;;;22.82;48.30;99362.31;5077551;28;20035;-92
2022/05/23 10:48:46;;;;;;;6.65;2.85;;;;;;;22.15;47.75;99358.81;5082761;28;20472;-91
2022/05/23 10:51:45;;;;;;;4.43;1.92;;;;;;;23.11;47.24;99365.25;5074569;28;20053;-92
2022/05/23 10:55:06;;;;;;;4.93;1.85;;;;;;;21.72;50.80;99347.16;5069731;28;20040;-92
2022/05/23 10:58:08;;;;;;;4.50;2.20;;;;;;;22.14;47.06;99345.56;5073229;28;20044;-92
2022/05/23 11:01:03;;;;;;;;;;;;;;;22.17;47.29;99353.38;5061363;28;20062;-91
2022/05/23 11:04:16;;;;;;;2.13;1.17;;;;;;;20.15;52.79;99356.19;5072554;28;19927;-92
2022/05/23 11:07:24;;;;;;;2.67;1.00;;;;;;;20.89;51.53;99330.34;5088127;28;20031;-92
2022/05/23 11:10:09;;;;;;;5.50;1.80;;;;;;;22.16;47.20;99344.53;5072267;28;20297;-91
2022/05/23 11:13:16;;;;;;;4.65;1.60;;;;;;;20.67;49.84;99327.59;5070176;28;20040;-91
2022/05/23 11:16:39;;;;;;;2.80;1.95;;;;;;;20.56;52.25;99332.88;5072534;28;20036;-92
2022/05/23 11:19:50;;;;;;;1.92;1.42;;;;;;;22.17;50.60;99324.03;5069051;28;20063;-92
2022/05/23 11:22:45;;;;;;;1.92;1.42;;;;;;;21.68;50.71;99320.75;5085823;28;20032;-91
2022/05/23 11:25:34;;;;;;;2.25;1.30;;;;;;;22.03;48.77;99309.09;5071540;28;20036;-91
2022/05/23 11:34:54;;;;;;;1.00;0.80;;;;;;;22.47;48.29;99301.16;5083389;28;20040;-91
2022/05/23 11:37:49;;;;;;;3.15;1.20;;;;;;;21.94;46.56;99293.84;5074695;28;20047;-91
2022/05/23 11:40:38;;;;;;;1.73;1.25;;;;;;;21.69;47.09;99303.78;5073210;28;20633;-91
2022/05/23 11:43:24;;;;;;;1.95;1.23;;;;;;;21.83;47.72;99294.69;5074390;28;20032;-91
2022/05/23 11:46:11;;;;;;;1.63;1.00;;;;;;;21.81;47.24;99298.47;5074043;28;20040;-91
2022/05/23 11:49:00;;;;;;;1.17;1.00;;;;;;;21.37;48.28;99289.47;5072860;28;20069;-91
2022/05/23 11:51:59;;;;;;;1.58;0.60;;;;;;;23.40;48.16;99287.97;5074493;28;20036;-91
2022/05/23 11:54:43;;;;;;;0.80;0.75;;;;;;;21.92;47.29;99282.44;5088120;28;20039;-92
2022/05/23 11:57:37;;;;;;;3.70;0.95;;;;;;;22.85;45.89;99279.28;5090805;28;20040;-91
2022/05/23 12:00:33;;;;;;;2.05;0.50;;;;;;;22.67;48.09;99284.34;5083394;28;20047;-91
2022/05/23 12:03:19;;;;;;;2.00;0.60;;;;;;;22.35;48.64;99273.66;5074251;28;20039;-91
2022/05/23 12:06:15;;;;;;;0.70;0.32;;;;;;;22.77;52.10;99269.25;5076668;28;20088;-92
2022/05/23 12:09:14;;;;;;;0.95;0.38;;;;;;;23.58;45.67;99258.78;5075064;28;20047;-92
2022/05/23 12:12:48;;;;;;;0.52;0.50;;;;;;;22.32;46.51;99265.91;5074598;28;20109;-92
2022/05/23 12:15:46;;;;;;;0.52;0.43;;;;;;;20.24;48.03;99267.75;4985163;28;20046;-91
2022/05/23 12:18:39;;;;;;;2.60;0.55;;;;;;;21.28;47.07;99269.69;4996903;28;20476;-91
2022/05/23 12:21:36;;;;;;;1.45;0.50;;;;;;;21.89;46.34;99266.72;5072292;28;20040;-92
2022/05/23 12:24:23;;;;;;;0.90;0.70;;;;;;;21.08;45.90;99259.75;5071093;28;20055;-92
2022/05/23 12:27:33;;;;;;;1.10;0.70;;;;;;;22.22;44.08;99241.81;5073996;28;20043;-91
2022/05/23 12:30:17;;;;;;;1.15;0.60;;;;;;;21.62;45.08;99251.13;5063311;28;20043;-92
2022/05/23 12:33:01;;;;;;;1.52;0.65;;;;;;;22.55;44.51;99248.00;5071128;28;20093;-92
2022/05/23 12:35:51;;;;;;;2.20;1.30;;;;;;;21.68;46.37;99243.47;5081645;28;20039;-91
2022/05/23 12:38:52;;;;;;;1.08;0.45;;;;;;;21.72;45.13;99228.09;5068316;28;20409;-92
2022/05/23 12:42:14;;;;;;;0.80;0.32;;;;;;;21.73;44.71;99232.44;5079603;28;20393;-91
2022/05/23 12:45:01;;;;;;;0.47;0.40;;;;;;;22.01;43.19;99224.88;5083786;28;20097;-91
2022/05/23 12:48:03;;;;;;;0.38;0.20;;;;;;;22.23;43.90;99202.66;5074345;28;20036;-92
2022/05/23 12:54:34;;;;;;;0.30;0.20;;;;;;;21.88;46.02;99220.53;5082248;28;20036;-91
2022/05/23 12:57:44;;;;;;;0.57;0.10;;;;;;;22.28;42.50;99213.78;5073682;28;20039;-91
2022/05/23 13:00:36;;;;;;;0.52;0.35;;;;;;;22.31;42.02;99209.06;5070704;28;20122;-91
2022/05/23 13:03:31;;;;;;;0.50;0.30;;;;;;;21.95;42.58;99202.25;5074176;28;20440;-91
2022/05/23 13:06:24;;;;;;;1.10;0.10;;;;;;;21.72;42.78;99196.09;5074569;28;20058;-91
2022/05/23 13:09:16;;;;;;;0.90;0.30;;;;;;;20.74;44.49;99187.84;5083360;28;20044;-91
2022/05/23 13:12:06;;;;;;;0.32;0.20;;;;;;;21.08;43.67;99193.19;5083420;28;20063;-91
2022/05/23 13:14:53;;;;;;;0.63;0.10;;;;;;;21.40;44.17;99188.03;5069428;28;20051;-91
2022/05/23 13:17:39;;;;;;;0.20;0.00;;;;;;;20.96;43.22;99187.88;5065247;28;20055;-91
2022/05/23 13:23:34;;;;;;;1.67;0.40;;;;;;;21.37;43.46;99178.47;5081611;28;20040;-90
2022/05/23 13:26:28;;;;;;;0.93;0.28;;;;;;;20.76;44.67;99183.22;5070458;28;20096;-91
2022/05/23 13:29:15;;;;;;;1.60;0.22;;;;;;;21.37;44.40;99162.47;5068928;28;20043;-91
2022/05/23 13:32:16;;;;;;;0.40;0.30;;;;;;;21.16;46.63;99164.19;5071279;28;20040;-91
2022/05/23 13:35:00;;;;;;;0.85;0.30;;;;;;;20.60;45.64;99180.03;5077795;28;20047;-92
2022/05/23 13:37:45;;;;;;;0.80;0.32;;;;;;;20.17;46.47;99148.69;5087909;28;20474;-91
2022/05/23 13:40:30;;;;;;;0.32;0.30;;;;;;;20.58;46.43;99158.91;5070605;28;20039;-90
2022/05/23 13:43:22;;;;;;;0.80;0.30;;;;;;;20.55;45.68;99161.78;5065526;28;20085;-91
2022/05/23 13:46:15;;;;;;;1.15;0.22;;;;;;;19.95;45.26;99171.53;5067424;28;20036;-92
2022/05/23 13:49:15;;;;;;;0.57;0.28;;;;;;;20.39;45.20;99161.22;5051098;28;20383;-91
2022/05/23 13:52:06;;;;;;;2.67;0.43;;;;;;;20.20;45.66;99140.50;5073897;28;20048;-90
2022/05/23 13:54:56;;;;;;;0.93;0.20;;;;;;;20.17;47.93;99146.88;5068207;28;20063;-92
2022/05/23 13:57:49;;;;;;;0.55;0.30;;;;;;;20.89;46.67;99152.03;5088308;28;20114;-92
2022/05/23 14:00:37;;;;;;;3.20;0.40;;;;;;;20.34;46.57;99150.91;5074581;28;20040;-91
2022/05/23 14:03:33;;;;;;;4.80;1.25;;;;;;;20.35;46.94;99142.00;5070345;28;20060;-91
2022/05/23 14:06:24;;;;;;;1.10;0.40;;;;;;;20.45;44.81;99142.16;5086011;28;20097;-94
2022/05/23 14:09:08;;;;;;;1.45;0.40;;;;;;;20.08;44.48;99132.50;5076299;28;20172;-93
2022/05/23 14:12:01;;;;;;;0.50;0.30;;;;;;;20.21;44.65;99150.16;5067698;28;20040;-94
2022/05/23 14:15:11;;;;;;;0.98;0.50;;;;;;;20.05;44.96;99135.38;5083954;28;20500;-94
2022/05/23 14:18:01;;;;;;;0.63;0.25;;;;;;;20.47;45.42;99149.06;5076731;28;20043;-94
2022/05/23 14:20:47;;;;;;;0.28;0.20;;;;;;;20.57;45.78;99138.56;5069140;28;20031;-94
2022/05/23 14:23:33;;;;;;;1.27;0.40;;;;;;;20.03;45.78;99142.59;5067369;28;20040;-93
2022/05/23 14:26:19;;;;;;;3.40;0.30;;;;;;;19.81;45.50;99150.47;5070436;28;20028;-93
2022/05/23 14:29:11;;;;;;;0.85;0.30;;;;;;;20.59;45.46;99149.94;5070049;28;20032;-94
2022/05/23 14:32:01;;;;;;;1.33;0.30;;;;;;;20.25;48.34;99130.38;5072750;28;20413;-92
2022/05/23 14:34:51;;;;;;;1.92;0.55;;;;;;;19.99;47.55;99127.84;5076059;28;20157;-94